Portage, Pennsylvania
Current Conditions -  °F | °C
As of 3:54 PM on Saturday 25 Oct 2014 (Local Time) from KJST Reporting Station
Clear Clear  
Wind Chill: 61°   Ceiling: Unl
Heat Index: 61°   Visibility: 10mi
Dew Point: 45°   Wind: 20mph
Humidity: 56%   Direction: 260°W
Pressure: 29.79"   Gusts: 26mph
Location:  40.39°N, 78.67°W
Report Text: KJST 251954Z AUTO 26017G23KT 10SM CLR 16/07 A2979 RMK AO2 PK WND 25026/1912 SLP086 T01610072
Loading
Personal Weather Stations






























Interactive Weather Map
Tropical Storm Tracking
New forecast layout! Learn more

10-Day Weather Forecast

Advertisements
Track Severe Weather on mobile